KCUH/CUH METAR and TAF weather

Enter ICAO airport designator
Station Type Date Time Source
KCUH METAR 2019/06/16 06:55 UTC NOAA

KCUH 160655Z AUTO 27012G20KT 10SM TSRA OVC120 19/18 A2985 RMK AO2 LTG DSNT ALQS P0009 T01890176


Station Type Date Time Source
KCUH Decoded METAR 2019/06/16 06:55 UTC NOAA

Cushing, Cushing Municipal Airport, OK, United States (KCUH) 35-56-59N 096-46-22W
Jun 16, 2019 - 02:55 AM EDT / 2019.06.16 0655 UTC
Wind: from the W (270 degrees) at 14 MPH (12 KT) gusting to 23 MPH (20 KT):0
Visibility: 10 mile(s):0
Sky conditions: overcast
Weather: rain with thunder; Lightning observed
Precipitation last hour: 0.09 inches
Temperature: 66.0 F (18.9 C)
Dew Point: 63.7 F (17.6 C)
Relative Humidity: 92%
Pressure (altimeter): 29.85 in. Hg (1010 hPa)
ob: KCUH 160655Z AUTO 27012G20KT 10SM TSRA OVC120 19/18 A2985 RMK AO2 LTG DSNT ALQS P0009 T01890176
cycle: 7

Station Type Date Time Source
KCUH TAF UTC NOAA

Error!

Example: see airport list